createdAt,value
2023-01-10T00:01:31.469Z,96677.13
2023-01-10T00:03:58.017Z,96677.81
2023-01-10T00:06:24.577Z,96692.00
2023-01-10T00:08:51.019Z,96693.53
2023-01-10T00:11:36.250Z,96705.44
2023-01-10T00:14:02.735Z,96707.59
2023-01-10T00:16:29.145Z,96705.97
2023-01-10T00:18:55.667Z,96699.59
2023-01-10T00:21:22.111Z,96700.78
2023-01-10T00:23:49.123Z,96707.16
2023-01-10T00:26:15.583Z,96702.38
2023-01-10T00:28:43.018Z,96704.38
2023-01-10T00:31:12.114Z,96717.69
2023-01-10T00:33:38.934Z,96714.50
2023-01-10T00:36:07.437Z,96729.75
2023-01-10T00:38:35.397Z,96739.97
2023-01-10T00:41:03.283Z,96740.53
2023-01-10T00:43:48.322Z,96746.56
2023-01-10T00:46:14.817Z,96753.41
2023-01-10T00:48:41.404Z,96753.81
2023-01-10T00:51:07.790Z,96754.22
2023-01-10T00:53:34.180Z,96756.63
2023-01-10T00:56:00.582Z,96760.66
2023-01-10T00:58:27.030Z,96758.41
2023-01-10T01:00:53.478Z,96775.47
2023-01-10T01:03:23.269Z,96776.31
2023-01-10T01:05:50.310Z,96778.31
2023-01-10T01:08:18.347Z,96776.09
2023-01-10T01:10:45.494Z,96785.13
2023-01-10T01:13:18.454Z,96798.75
2023-01-10T01:15:44.948Z,96793.44
2023-01-10T01:18:17.187Z,96793.00
2023-01-10T01:20:45.831Z,96813.41
2023-01-10T01:23:12.535Z,96820.22
2023-01-10T01:25:39.228Z,96823.91
2023-01-10T01:28:05.890Z,96820.38
2023-01-10T01:30:32.389Z,96827.53
2023-01-10T01:32:58.752Z,96836.41
2023-01-10T01:35:25.264Z,96845.28
2023-01-10T01:37:51.703Z,96848.97
2023-01-10T01:40:21.134Z,96853.38
2023-01-10T01:42:48.419Z,96868.78
2023-01-10T01:45:14.755Z,96867.75
2023-01-10T01:47:50.017Z,96865.38
2023-01-10T01:50:21.290Z,96877.09
2023-01-10T01:52:50.100Z,96884.91
2023-01-10T01:55:16.723Z,96881.28
2023-01-10T01:57:45.939Z,96891.84
2023-01-10T02:00:13.311Z,96888.22
2023-01-10T02:03:01.218Z,96896.66
2023-01-10T02:05:31.198Z,96901.53
2023-01-10T02:07:59.858Z,96916.59
2023-01-10T02:10:48.905Z,96917.19
2023-01-10T02:13:18.084Z,96919.38
2023-01-10T02:15:44.568Z,96915.75
2023-01-10T02:18:11.087Z,96923.66
2023-01-10T02:21:04.681Z,96926.97
2023-01-10T02:23:40.093Z,96930.19
2023-01-10T02:26:34.335Z,96936.28
2023-01-10T02:29:25.743Z,96938.38
2023-01-10T02:32:40.642Z,96949.19
2023-01-10T02:35:40.629Z,96961.44
2023-01-10T02:38:24.603Z,96963.38
2023-01-10T02:41:02.194Z,96959.19
2023-01-10T02:43:36.725Z,96967.47
2023-01-10T02:46:08.743Z,96977.84
2023-01-10T02:48:35.180Z,96983.31
2023-01-10T02:51:12.953Z,96985.81
2023-01-10T02:53:43.169Z,96985.03
2023-01-10T02:56:12.615Z,96986.97
2023-01-10T02:59:21.015Z,96994.97
2023-01-10T03:02:12.386Z,97001.88
2023-01-10T03:04:58.855Z,97000.13
2023-01-10T03:07:34.136Z,97003.84
2023-01-10T03:10:20.122Z,97006.13
2023-01-10T03:13:00.915Z,97014.47
2023-01-10T03:15:31.928Z,97023.59
2023-01-10T03:18:02.241Z,97027.97
2023-01-10T03:20:31.957Z,97034.13
2023-01-10T03:23:00.354Z,97045.53
2023-01-10T03:25:34.093Z,97052.09
2023-01-10T03:28:10.320Z,97062.06
2023-01-10T03:30:44.848Z,97069.75
2023-01-10T03:33:14.024Z,97078.44
2023-01-10T03:36:26.953Z,97083.66
2023-01-10T03:39:14.412Z,97087.94
2023-01-10T03:41:52.775Z,97088.44
2023-01-10T03:44:43.846Z,97103.53
2023-01-10T03:47:33.797Z,97103.34
2023-01-10T03:50:08.572Z,97115.09
2023-01-10T03:52:37.112Z,97120.25
2023-01-10T03:55:05.355Z,97119.19
2023-01-10T03:57:32.376Z,97128.03
2023-01-10T04:00:02.097Z,97133.97
2023-01-10T04:02:31.902Z,97130.91
2023-01-10T04:04:59.182Z,97148.31
2023-01-10T04:07:26.541Z,97140.03
2023-01-10T04:09:53.887Z,97143.78
2023-01-10T04:12:20.254Z,97153.38
2023-01-10T04:14:47.171Z,97159.59
2023-01-10T04:17:15.403Z,97166.59
2023-01-10T04:19:42.099Z,97163.66
2023-01-10T04:22:09.591Z,97173.59
2023-01-10T04:24:36.074Z,97175.16
2023-01-10T04:27:03.667Z,97181.78
2023-01-10T04:29:30.110Z,97179.19
2023-01-10T04:31:56.640Z,97184.41
2023-01-10T04:34:23.065Z,97189.75
2023-01-10T04:36:50.681Z,97194.00
2023-01-10T04:39:17.330Z,97205.22
2023-01-10T04:41:43.781Z,97206.03
2023-01-10T04:44:10.657Z,97212.81
2023-01-10T04:46:37.053Z,97213.66
2023-01-10T04:49:03.455Z,97212.84
2023-01-10T04:51:29.855Z,97212.56
2023-01-10T04:53:56.335Z,97227.59
2023-01-10T04:56:23.159Z,97215.91
2023-01-10T04:58:52.356Z,97215.38
2023-01-10T05:01:25.829Z,97214.06
2023-01-10T05:03:54.567Z,97217.44
2023-01-10T05:06:21.971Z,97217.41
2023-01-10T05:08:48.362Z,97220.13
2023-01-10T05:11:14.823Z,97224.63
2023-01-10T05:13:41.703Z,97235.34
2023-01-10T05:16:08.477Z,97237.22
2023-01-10T05:18:35.031Z,97245.84
2023-01-10T05:21:03.105Z,97261.47
2023-01-10T05:23:29.793Z,97260.09
2023-01-10T05:25:56.515Z,97265.31
2023-01-10T05:28:23.066Z,97270.28
2023-01-10T05:30:49.804Z,97277.16
2023-01-10T05:33:16.234Z,97272.69
2023-01-10T05:35:42.661Z,97281.38
2023-01-10T05:38:09.043Z,97282.28
2023-01-10T05:40:35.540Z,97286.25
2023-01-10T05:43:01.964Z,97285.03
2023-01-10T05:45:28.380Z,97296.78
2023-01-10T05:47:54.760Z,97301.63
2023-01-10T05:50:21.383Z,97302.66
2023-01-10T05:52:47.755Z,97310.91
2023-01-10T05:55:14.141Z,97307.25
2023-01-10T05:57:40.548Z,97328.84
2023-01-10T06:00:07.758Z,97330.09
2023-01-10T06:02:34.318Z,97335.56
2023-01-10T06:05:00.916Z,97331.09
2023-01-10T06:07:27.354Z,97331.63
2023-01-10T06:09:53.704Z,97328.16
2023-01-10T06:12:20.799Z,97334.03
2023-01-10T06:14:47.276Z,97332.34
2023-01-10T06:17:13.792Z,97341.50
2023-01-10T06:19:40.304Z,97337.31
2023-01-10T06:22:06.680Z,97345.44
2023-01-10T06:24:33.050Z,97344.22
2023-01-10T06:26:59.425Z,97344.22
2023-01-10T06:29:25.881Z,97345.94
2023-01-10T06:31:52.317Z,97354.56
2023-01-10T06:34:18.677Z,97370.63
2023-01-10T06:36:45.072Z,97360.09
2023-01-10T06:39:11.654Z,97370.84
2023-01-10T06:41:38.054Z,97377.78
2023-01-10T06:44:04.570Z,97382.84
2023-01-10T06:46:30.964Z,97385.94
2023-01-10T06:48:57.378Z,97400.50
2023-01-10T06:51:23.776Z,97391.06
2023-01-10T06:53:50.181Z,97396.16
2023-01-10T06:56:16.557Z,97399.88
2023-01-10T06:58:43.032Z,97401.50
2023-01-10T07:01:19.239Z,97423.63
2023-01-10T07:03:46.706Z,97430.06
2023-01-10T07:06:13.558Z,97424.44
2023-01-10T07:08:45.978Z,97432.56
2023-01-10T07:11:15.101Z,97438.59
2023-01-10T07:13:41.645Z,97445.38
2023-01-10T07:16:14.247Z,97444.81
2023-01-10T07:18:42.286Z,97452.09
2023-01-10T07:21:09.616Z,97451.59
2023-01-10T07:23:36.322Z,97452.16
2023-01-10T07:26:04.919Z,97461.47
2023-01-10T07:28:42.766Z,97460.81
2023-01-10T07:31:10.546Z,97455.66
2023-01-10T07:33:37.293Z,97448.88
2023-01-10T07:36:03.968Z,97448.88
2023-01-10T07:38:30.525Z,97452.09
2023-01-10T07:40:56.904Z,97461.41
2023-01-10T07:43:23.387Z,97463.03
2023-01-10T07:45:49.803Z,97471.81
2023-01-10T07:48:16.310Z,97476.34
2023-01-10T07:50:42.739Z,97481.44
2023-01-10T07:53:09.638Z,97487.75
2023-01-10T07:55:38.934Z,97485.91
2023-01-10T07:58:10.528Z,97490.00
2023-01-10T08:00:37.154Z,97499.31
2023-01-10T08:03:04.431Z,97502.41
2023-01-10T08:05:30.978Z,97519.75
2023-01-10T08:08:00.055Z,97521.63
2023-01-10T08:10:27.039Z,97521.94
2023-01-10T08:12:53.431Z,97513.75
2023-01-10T08:15:19.947Z,97515.28
2023-01-10T08:17:46.519Z,97506.47
2023-01-10T08:20:13.051Z,97512.75
2023-01-10T08:22:39.422Z,97517.47
2023-01-10T08:25:06.073Z,97528.50
2023-01-10T08:27:32.522Z,97531.63
2023-01-10T08:29:59.585Z,97532.66
2023-01-10T08:32:26.000Z,97540.13
2023-01-10T08:34:52.495Z,97552.22
2023-01-10T08:37:18.946Z,97558.56
2023-01-10T08:39:45.339Z,97562.75
2023-01-10T08:42:11.824Z,97570.75
2023-01-10T08:44:38.217Z,97572.03
2023-01-10T08:47:04.632Z,97565.56
2023-01-10T08:49:31.037Z,97544.69
2023-01-10T08:51:57.726Z,97559.88
2023-01-10T08:54:24.351Z,97572.03
2023-01-10T08:56:50.775Z,97570.31
2023-01-10T08:59:17.282Z,97572.28
2023-01-10T09:01:43.733Z,97572.41
2023-01-10T09:04:10.212Z,97576.56
2023-01-10T09:06:37.318Z,97577.69
2023-01-10T09:09:04.429Z,97581.31
2023-01-10T09:11:30.846Z,97580.91
2023-01-10T09:13:57.208Z,97583.66
2023-01-10T09:16:24.015Z,97582.84
2023-01-10T09:18:50.527Z,97585.78
2023-01-10T09:21:17.052Z,97589.91
2023-01-10T09:23:44.348Z,97589.78
2023-01-10T09:26:11.136Z,97594.97
2023-01-10T09:28:37.578Z,97601.44
2023-01-10T09:31:05.140Z,97603.56
2023-01-10T09:33:45.342Z,97604.50
2023-01-10T09:36:15.326Z,97615.25
2023-01-10T09:38:45.916Z,97617.88
2023-01-10T09:41:21.277Z,97623.28
2023-01-10T09:44:14.458Z,97619.44
2023-01-10T09:47:14.237Z,97619.53
2023-01-10T09:50:11.321Z,97628.00
2023-01-10T09:53:04.338Z,97637.91
2023-01-10T09:55:34.205Z,97633.16
2023-01-10T09:58:24.189Z,97640.16
2023-01-10T10:00:58.448Z,97640.28
2023-01-10T10:03:48.970Z,97640.44
2023-01-10T10:06:15.581Z,97641.47
2023-01-10T10:08:44.500Z,97639.00
2023-01-10T10:11:26.108Z,97636.00
2023-01-10T10:14:20.173Z,97628.25
2023-01-10T10:17:20.977Z,97638.88
2023-01-10T10:20:12.124Z,97643.81
2023-01-10T10:23:08.786Z,97632.53
2023-01-10T10:25:59.185Z,97636.84
2023-01-10T10:28:35.638Z,97630.81
2023-01-10T10:31:24.028Z,97634.13
2023-01-10T10:34:12.551Z,97628.94
2023-01-10T10:36:47.654Z,97630.25
2023-01-10T10:39:19.331Z,97633.84
2023-01-10T10:41:52.422Z,97623.34
2023-01-10T10:44:50.813Z,97627.38
2023-01-10T10:47:20.990Z,97633.41
2023-01-10T10:50:05.813Z,97624.84
2023-01-10T10:52:36.012Z,97624.34
2023-01-10T10:55:04.991Z,97625.56
2023-01-10T10:57:34.305Z,97621.63
2023-01-10T11:00:02.839Z,97617.81
2023-01-10T11:02:32.329Z,97618.00
2023-01-10T11:05:17.642Z,97614.88
2023-01-10T11:07:44.616Z,97622.78
2023-01-10T11:10:34.834Z,97629.66
2023-01-10T11:13:05.827Z,97622.22
2023-01-10T11:15:46.667Z,97628.09
2023-01-10T11:18:14.416Z,97630.16
2023-01-10T11:20:50.001Z,97633.41
2023-01-10T11:23:25.894Z,97634.97
2023-01-10T11:25:52.543Z,97628.38
2023-01-10T11:28:23.379Z,97628.88
2023-01-10T11:30:51.129Z,97628.94
2023-01-10T11:33:22.231Z,97629.25
2023-01-10T11:36:05.707Z,97614.50
2023-01-10T11:38:32.970Z,97620.69
2023-01-10T11:41:03.857Z,97624.91
2023-01-10T11:43:40.759Z,97628.94
2023-01-10T11:46:16.310Z,97634.34
2023-01-10T11:51:37.370Z,97626.03
2023-01-10T11:54:07.330Z,97631.50
2023-01-10T11:56:39.986Z,97620.53
2023-01-10T11:59:17.018Z,97614.00
2023-01-10T12:01:48.549Z,97615.88
2023-01-10T12:04:17.372Z,97611.81
2023-01-10T12:06:47.246Z,97614.09
2023-01-10T12:09:55.888Z,97613.38
2023-01-10T12:12:23.418Z,97618.78
2023-01-10T12:14:50.863Z,97610.91
2023-01-10T12:17:22.918Z,97617.47
2023-01-10T12:19:53.123Z,97619.41
2023-01-10T12:22:22.329Z,97603.66
2023-01-10T12:24:52.293Z,97602.78
2023-01-10T12:27:20.313Z,97585.34
2023-01-10T12:29:56.607Z,97585.13
2023-01-10T12:32:26.719Z,97567.00
2023-01-10T12:35:15.552Z,97572.59
2023-01-10T12:37:47.989Z,97563.84
2023-01-10T12:40:25.384Z,97560.88
2023-01-10T12:43:16.161Z,97569.28
2023-01-10T12:45:49.023Z,97568.97
2023-01-10T12:48:41.346Z,97582.41
2023-01-10T12:51:15.497Z,97568.47
2023-01-10T12:53:48.433Z,97566.69
2023-01-10T12:56:16.652Z,97561.22
2023-01-10T12:58:47.076Z,97560.28
2023-01-10T13:01:40.523Z,97569.53
2023-01-10T13:04:12.340Z,97571.13
2023-01-10T13:06:41.367Z,97570.44
2023-01-10T13:09:13.755Z,97576.22
2023-01-10T13:11:45.409Z,97575.59
2023-01-10T13:14:18.010Z,97576.38
2023-01-10T13:16:56.175Z,97567.88
2023-01-10T13:19:25.688Z,97563.69
2023-01-10T13:22:17.724Z,97564.41
2023-01-10T13:24:55.693Z,97557.88
2023-01-10T13:27:23.748Z,97564.66
2023-01-10T13:29:51.217Z,97562.28
2023-01-10T13:32:27.334Z,97559.88
2023-01-10T13:34:54.464Z,97555.63
2023-01-10T13:37:28.096Z,97552.22
2023-01-10T13:40:00.660Z,97552.56
2023-01-10T13:42:54.466Z,97547.53
2023-01-10T13:45:25.101Z,97550.53
2023-01-10T13:47:54.555Z,97555.84
2023-01-10T13:50:36.203Z,97551.72
2023-01-10T13:53:02.586Z,97561.50
2023-01-10T13:55:35.691Z,97560.88
2023-01-10T13:58:04.891Z,97555.44
2023-01-10T14:00:53.042Z,97556.03
2023-01-10T14:03:50.671Z,97555.03
2023-01-10T14:06:29.571Z,97557.47
2023-01-10T14:09:06.470Z,97559.44
2023-01-10T14:11:50.742Z,97553.63
2023-01-10T14:14:33.601Z,97565.09
2023-01-10T14:17:15.621Z,97563.84
2023-01-10T14:19:45.196Z,97565.44
2023-01-10T14:22:28.029Z,97566.69
2023-01-10T14:24:54.835Z,97571.34
2023-01-10T14:27:22.948Z,97575.00
2023-01-10T14:29:57.193Z,97566.44
2023-01-10T14:32:47.561Z,97575.00
2023-01-10T14:35:18.464Z,97576.34
2023-01-10T14:37:53.070Z,97576.59
2023-01-10T14:40:41.759Z,97577.53
2023-01-10T14:43:15.259Z,97582.41
2023-01-10T14:45:58.312Z,97576.97
2023-01-10T14:48:43.566Z,97564.66
2023-01-10T14:51:24.086Z,97563.47
2023-01-10T14:54:10.919Z,97548.56
2023-01-10T14:56:42.950Z,97547.69
2023-01-10T14:59:24.444Z,97530.75
2023-01-10T15:01:53.513Z,97527.38
2023-01-10T15:04:23.970Z,97527.56
2023-01-10T15:06:52.679Z,97520.66
2023-01-10T15:09:19.113Z,97519.50
2023-01-10T15:11:48.131Z,97502.91
2023-01-10T15:14:17.812Z,97507.16
2023-01-10T15:16:48.100Z,97500.50
2023-01-10T15:19:20.887Z,97498.50
2023-01-10T15:21:48.007Z,97500.50
2023-01-10T15:24:34.724Z,97509.41
2023-01-10T15:27:13.193Z,97496.09
2023-01-10T15:29:44.809Z,97498.06
2023-01-10T15:32:18.802Z,97486.38
2023-01-10T15:34:50.051Z,97483.13
2023-01-10T15:37:22.257Z,97482.91
2023-01-10T15:39:48.927Z,97481.47
2023-01-10T15:42:15.491Z,97481.41
2023-01-10T15:44:45.179Z,97479.72
2023-01-10T15:47:33.659Z,97470.16
2023-01-10T15:50:00.216Z,97472.34
2023-01-10T15:52:26.799Z,97480.63
2023-01-10T15:54:56.695Z,97477.00
2023-01-10T15:57:30.261Z,97480.47
2023-01-10T15:59:58.919Z,97483.25
2023-01-10T16:02:30.676Z,97481.81
2023-01-10T16:05:10.106Z,97473.13
2023-01-10T16:07:43.526Z,97469.88
2023-01-10T16:10:17.155Z,97472.47
2023-01-10T16:13:02.379Z,97462.78
2023-01-10T16:15:31.430Z,97463.91
2023-01-10T16:17:58.563Z,97457.00
2023-01-10T16:20:31.324Z,97457.78
2023-01-10T16:22:58.680Z,97456.56
2023-01-10T16:25:35.135Z,97457.75
2023-01-10T16:28:01.948Z,97456.94
2023-01-10T16:30:33.668Z,97455.31
2023-01-10T16:33:11.276Z,97450.13
2023-01-10T16:35:37.779Z,97456.56
2023-01-10T16:38:04.450Z,97449.31
2023-01-10T16:40:38.367Z,97462.97
2023-01-10T16:43:23.385Z,97455.72
2023-01-10T16:45:59.850Z,97454.09
2023-01-10T16:48:31.620Z,97454.53
2023-01-10T16:51:25.529Z,97454.94
2023-01-10T16:53:52.353Z,97443.31
2023-01-10T16:56:21.502Z,97451.38
2023-01-10T16:58:49.155Z,97448.19
2023-01-10T17:01:24.295Z,97450.66
2023-01-10T17:03:51.867Z,97453.47
2023-01-10T17:06:19.183Z,97441.44
2023-01-10T17:08:46.049Z,97439.03
2023-01-10T17:11:40.547Z,97440.06
2023-01-10T17:14:10.219Z,97439.25
2023-01-10T17:16:36.734Z,97430.94
2023-01-10T17:19:03.147Z,97427.28
2023-01-10T17:21:29.616Z,97424.91
2023-01-10T17:23:55.976Z,97423.69
2023-01-10T17:26:22.420Z,97424.47
2023-01-10T17:28:49.827Z,97428.47
2023-01-10T17:31:19.418Z,97427.25
2023-01-10T17:33:45.947Z,97421.59
2023-01-10T17:36:12.419Z,97427.97
2023-01-10T17:38:39.266Z,97420.69
2023-01-10T17:41:07.336Z,97424.25
2023-01-10T17:43:33.818Z,97414.09
2023-01-10T17:46:05.534Z,97409.88
2023-01-10T17:48:34.674Z,97404.03
2023-01-10T17:51:02.409Z,97406.03
2023-01-10T17:53:29.236Z,97409.75
2023-01-10T17:55:57.778Z,97406.25
2023-01-10T17:58:24.289Z,97408.69
2023-01-10T18:00:50.732Z,97401.47
2023-01-10T18:03:17.301Z,97394.63
2023-01-10T18:06:22.843Z,97401.47
2023-01-10T18:08:50.200Z,97394.38
2023-01-10T18:11:16.661Z,97392.34
2023-01-10T18:13:43.042Z,97401.28
2023-01-10T18:16:09.652Z,97401.59
2023-01-10T18:18:36.071Z,97401.59
2023-01-10T18:21:05.497Z,97394.38
2023-01-10T18:23:33.139Z,97392.56
2023-01-10T18:26:11.234Z,97391.50
2023-01-10T18:28:42.550Z,97385.84
2023-01-10T18:31:12.920Z,97385.94
2023-01-10T18:33:40.850Z,97381.72
2023-01-10T18:36:11.186Z,97377.72
2023-01-10T18:38:37.660Z,97378.16
2023-01-10T18:41:04.264Z,97388.25
2023-01-10T18:43:31.285Z,97384.22
2023-01-10T18:46:03.942Z,97391.91
2023-01-10T18:48:30.847Z,97377.44
2023-01-10T18:51:02.351Z,97371.00
2023-01-10T18:53:29.383Z,97360.91
2023-01-10T18:56:00.411Z,97350.03
2023-01-10T18:58:30.442Z,97354.47
2023-01-10T19:00:57.129Z,97344.41
2023-01-10T19:03:23.627Z,97343.63
2023-01-10T19:05:50.197Z,97341.19
2023-01-10T19:08:16.791Z,97338.75
2023-01-10T19:11:03.663Z,97329.50
2023-01-10T19:13:30.696Z,97338.75
2023-01-10T19:16:32.280Z,97342.78
2023-01-10T19:19:02.471Z,97332.34
2023-01-10T19:21:31.056Z,97318.09
2023-01-10T19:24:01.070Z,97323.50
2023-01-10T19:26:28.059Z,97334.78
2023-01-10T19:28:55.528Z,97333.59
2023-01-10T19:31:28.686Z,97331.00
2023-01-10T19:33:59.000Z,97327.72
2023-01-10T19:36:26.486Z,97326.47
2023-01-10T19:38:57.765Z,97328.94
2023-01-10T19:41:26.116Z,97319.91
2023-01-10T19:44:00.218Z,97317.88
2023-01-10T19:46:27.543Z,97309.47
2023-01-10T19:48:58.196Z,97307.47
2023-01-10T19:51:24.681Z,97315.50
2023-01-10T19:53:51.226Z,97305.84
2023-01-10T19:56:21.880Z,97306.19
2023-01-10T19:58:50.406Z,97304.63
2023-01-10T20:01:19.892Z,97304.22
2023-01-10T20:03:47.701Z,97310.69
2023-01-10T20:06:18.414Z,97300.19
2023-01-10T20:08:47.552Z,97305.63
2023-01-10T20:11:14.974Z,97301.22
2023-01-10T20:13:44.940Z,97296.59
2023-01-10T20:16:13.153Z,97304.22
2023-01-10T20:18:39.560Z,97300.41
2023-01-10T20:21:07.554Z,97296.16
2023-01-10T20:23:36.970Z,97293.78
2023-01-10T20:26:09.405Z,97304.63
2023-01-10T20:28:36.453Z,97307.06
2023-01-10T20:31:04.251Z,97307.66
2023-01-10T20:33:32.923Z,97303.63
2023-01-10T20:36:05.133Z,97302.25
2023-01-10T20:38:33.113Z,97296.59
2023-01-10T20:41:02.188Z,97294.16
2023-01-10T20:43:29.275Z,97296.59
2023-01-10T20:45:56.047Z,97289.75
2023-01-10T20:48:23.263Z,97291.97
2023-01-10T20:50:49.922Z,97296.59
2023-01-10T20:53:20.104Z,97284.13
2023-01-10T20:55:53.554Z,97279.69
2023-01-10T20:58:25.714Z,97277.06
2023-01-10T21:00:53.860Z,97280.50
2023-01-10T21:03:20.159Z,97271.22
2023-01-10T21:05:51.065Z,97281.88
2023-01-10T21:08:18.519Z,97273.59
2023-01-10T21:10:46.239Z,97277.22
2023-01-10T21:13:12.734Z,97274.41
2023-01-10T21:15:43.332Z,97267.91
2023-01-10T21:18:10.924Z,97273.97
2023-01-10T21:20:45.093Z,97267.13
2023-01-10T21:23:13.201Z,97273.16
2023-01-10T21:25:39.803Z,97259.69
2023-01-10T21:28:09.786Z,97269.22
2023-01-10T21:30:37.287Z,97263.16
2023-01-10T21:33:04.407Z,97256.31
2023-01-10T21:35:31.166Z,97265.16
2023-01-10T21:37:57.815Z,97249.88
2023-01-10T21:40:25.532Z,97246.66
2023-01-10T21:42:52.704Z,97249.66
2023-01-10T21:45:21.116Z,97244.63
2023-01-10T21:47:50.899Z,97243.84
2023-01-10T21:50:20.673Z,97249.88
2023-01-10T21:52:48.753Z,97239.00
2023-01-10T21:55:16.319Z,97236.78
2023-01-10T21:57:42.748Z,97247.44
2023-01-10T22:00:09.903Z,97249.47
2023-01-10T22:02:36.291Z,97233.75
2023-01-10T22:05:02.859Z,97245.25
2023-01-10T22:07:29.621Z,97241.81
2023-01-10T22:09:56.127Z,97242.63
2023-01-10T22:12:23.751Z,97242.59
2023-01-10T22:14:50.200Z,97233.38
2023-01-10T22:17:17.129Z,97235.75
2023-01-10T22:19:43.884Z,97245.44
2023-01-10T22:22:10.966Z,97236.78
2023-01-10T22:24:37.359Z,97239.00
2023-01-10T22:27:04.910Z,97239.81
2023-01-10T22:29:31.447Z,97240.22
2023-01-10T22:31:57.993Z,97232.75
2023-01-10T22:34:24.451Z,97229.13
2023-01-10T22:36:50.923Z,97235.19
2023-01-10T22:39:17.362Z,97234.38
2023-01-10T22:41:43.803Z,97228.13
2023-01-10T22:44:18.401Z,97217.16
2023-01-10T22:46:45.789Z,97222.72
2023-01-10T22:49:12.389Z,97214.63
2023-01-10T22:51:38.840Z,97210.00
2023-01-10T22:54:05.254Z,97214.63
2023-01-10T22:56:31.667Z,97213.50
2023-01-10T22:58:58.148Z,97220.41
2023-01-10T23:01:27.300Z,97217.97
2023-01-10T23:03:53.748Z,97226.09
2023-01-10T23:06:20.361Z,97217.66
2023-01-10T23:08:47.355Z,97222.81
2023-01-10T23:11:18.816Z,97224.41
2023-01-10T23:13:46.602Z,97223.63
2023-01-10T23:16:22.429Z,97213.91
2023-01-10T23:18:49.671Z,97218.31
2023-01-10T23:21:16.501Z,97205.13
2023-01-10T23:23:43.092Z,97200.88
2023-01-10T23:26:11.986Z,97207.75
2023-01-10T23:28:42.776Z,97192.53
2023-01-10T23:31:09.281Z,97197.13
2023-01-10T23:33:35.816Z,97186.13
2023-01-10T23:36:03.468Z,97185.28
2023-01-10T23:38:30.497Z,97193.56
2023-01-10T23:40:57.577Z,97191.25
2023-01-10T23:43:24.217Z,97179.69
2023-01-10T23:45:51.270Z,97182.22
2023-01-10T23:48:17.823Z,97181.31
2023-01-10T23:50:47.506Z,97174.41
2023-01-10T23:53:14.006Z,97174.78
2023-01-10T23:55:40.677Z,97163.84
2023-01-10T23:58:07.075Z,97168.19
